Time;durP1;ratioP1;P1;durP2;ratioP2;P2;SDS_P1;SDS_P2;PMS_P1;PMS_P2;Temp;Humidity;BMP_temperature;BMP_pressure;BME280_temperature;BME280_humidity;BME280_pressure;Samples;Min_cycle;Max_cycle;Signal;HPM_P1;HPM_P2
2021/09/23 00:02:48;;;;;;;21.10;12.35;;;21.10;53.00;;;;;;6225774;27;83235;-61
2021/09/23 00:05:49;;;;;;;19.60;13.52;;;21.10;53.20;;;;;;6228874;28;83481;-61
2021/09/23 00:08:50;;;;;;;18.92;12.43;;;21.10;53.30;;;;;;6230444;27;83345;-61
2021/09/23 00:11:50;;;;;;;19.73;12.82;;;21.10;53.10;;;;;;6228791;27;83506;-61
2021/09/23 00:14:51;;;;;;;20.63;13.38;;;21.10;53.50;;;;;;6219908;27;84077;-61
2021/09/23 00:17:51;;;;;;;20.23;12.40;;;21.10;53.10;;;;;;6229795;27;83425;-61
2021/09/23 00:20:52;;;;;;;17.48;12.02;;;21.00;53.30;;;;;;6228443;28;83149;-61
2021/09/23 00:23:53;;;;;;;23.83;13.40;;;21.10;53.30;;;;;;6231041;27;83242;-61
2021/09/23 00:26:53;;;;;;;21.80;13.20;;;21.00;53.10;;;;;;6229030;27;83491;-61
2021/09/23 00:29:54;;;;;;;18.35;12.30;;;21.00;52.90;;;;;;6214480;28;84861;-61
2021/09/23 00:32:55;;;;;;;18.90;12.98;;;21.10;53.30;;;;;;6227715;28;84434;-61
2021/09/23 00:35:55;;;;;;;18.83;12.30;;;21.10;53.40;;;;;;6228131;28;85562;-61
2021/09/23 00:38:56;;;;;;;22.33;12.82;;;21.00;52.90;;;;;;6224117;28;83956;-61
2021/09/23 00:41:57;;;;;;;23.20;13.45;;;21.00;53.30;;;;;;6227198;28;83222;-61
2021/09/23 00:44:58;;;;;;;19.77;12.63;;;21.00;53.10;;;;;;6214883;28;83058;-60
2021/09/23 00:47:58;;;;;;;20.90;12.98;;;21.00;53.10;;;;;;6227374;28;85360;-60
2021/09/23 00:50:59;;;;;;;22.83;12.57;;;21.00;53.20;;;;;;6226188;28;85856;-59
2021/09/23 00:54:00;;;;;;;21.02;13.02;;;21.00;53.00;;;;;;6225311;28;85033;-61
2021/09/23 00:57:00;;;;;;;22.50;13.30;;;21.00;53.40;;;;;;6221046;28;83393;-59
2021/09/23 01:00:02;;;;;;;21.27;12.73;;;21.00;53.40;;;;;;6226839;28;85836;-59
2021/09/23 01:03:07;;;;;;;19.45;12.60;;;21.00;53.20;;;;;;6218300;28;85221;-61
2021/09/23 01:06:08;;;;;;;23.85;13.10;;;21.00;53.20;;;;;;6226361;28;86219;-61
2021/09/23 01:09:10;;;;;;;18.60;12.45;;;21.00;53.30;;;;;;6226709;28;85802;-61
2021/09/23 01:12:10;;;;;;;20.13;12.55;;;21.00;53.20;;;;;;6225099;27;83208;-61
2021/09/23 01:15:11;;;;;;;22.33;12.90;;;21.00;53.30;;;;;;6225034;28;83331;-61
2021/09/23 01:18:11;;;;;;;21.58;12.63;;;21.00;53.20;;;;;;6227083;28;84056;-61
2021/09/23 01:21:13;;;;;;;22.23;13.25;;;21.00;53.30;;;;;;6226114;28;84134;-58
2021/09/23 01:24:13;;;;;;;19.20;12.77;;;21.00;53.40;;;;;;6227419;28;85250;-61
2021/09/23 01:27:14;;;;;;;20.40;12.77;;;21.00;53.30;;;;;;6225459;28;86429;-61
2021/09/23 01:30:15;;;;;;;21.63;12.32;;;21.00;53.20;;;;;;6226255;28;84873;-59
2021/09/23 01:33:20;;;;;;;17.20;11.98;;;21.00;53.40;;;;;;6227958;27;89306;-61
2021/09/23 01:36:21;;;;;;;21.23;12.43;;;21.00;53.30;;;;;;6223040;27;85514;-61
2021/09/23 01:39:23;;;;;;;19.40;12.82;;;21.00;53.00;;;;;;6216408;28;86219;-61
2021/09/23 01:42:24;;;;;;;19.70;12.85;;;21.00;53.30;;;;;;6224079;27;85978;-61
2021/09/23 01:45:25;;;;;;;19.75;12.30;;;21.00;53.30;;;;;;6225461;27;84331;-61
2021/09/23 01:48:26;;;;;;;20.20;12.23;;;21.00;53.10;;;;;;6225625;27;86264;-61
2021/09/23 01:51:27;;;;;;;23.17;12.73;;;21.00;53.30;;;;;;6230341;28;86306;-61
2021/09/23 01:54:27;;;;;;;19.70;12.52;;;21.00;53.30;;;;;;6222217;27;84791;-61
2021/09/23 01:57:29;;;;;;;19.63;12.98;;;21.00;53.30;;;;;;6223586;27;84024;-61
2021/09/23 02:00:30;;;;;;;18.00;11.98;;;21.00;53.60;;;;;;6227143;27;84238;-61
2021/09/23 02:03:30;;;;;;;21.45;12.50;;;21.00;53.50;;;;;;6220209;27;83871;-61
2021/09/23 02:06:57;;;;;;;;;;;21.00;53.10;;;;;;6213718;28;84072;-61
2021/09/23 02:09:58;;;;;;;18.08;11.63;;;21.00;53.20;;;;;;6236575;27;85692;-61
2021/09/23 02:12:59;;;;;;;19.20;12.75;;;21.00;53.10;;;;;;6220785;27;83560;-61
2021/09/23 02:16:03;;;;;;;20.17;12.07;;;21.00;53.00;;;;;;6222075;28;84434;-60
2021/09/23 02:19:03;;;;;;;20.13;12.75;;;21.00;53.20;;;;;;6223233;28;86205;-61
2021/09/23 02:22:06;;;;;;;19.60;12.73;;;21.00;53.10;;;;;;6225315;27;87309;-61
2021/09/23 02:25:07;;;;;;;18.42;12.45;;;21.00;53.20;;;;;;6218590;27;85832;-61
2021/09/23 02:28:08;;;;;;;21.50;13.30;;;20.90;53.20;;;;;;6225040;28;84483;-60
2021/09/23 02:31:08;;;;;;;17.88;11.85;;;20.90;53.10;;;;;;6226286;27;85438;-60
2021/09/23 02:34:09;;;;;;;18.08;11.13;;;21.00;52.90;;;;;;6223088;28;85558;-60
2021/09/23 02:37:10;;;;;;;19.83;11.90;;;21.00;53.10;;;;;;6222516;28;85332;-60
2021/09/23 02:40:10;;;;;;;20.05;12.40;;;21.00;52.90;;;;;;6216805;28;85389;-60
2021/09/23 02:43:11;;;;;;;18.75;11.45;;;21.00;53.00;;;;;;6216411;27;85645;-60
2021/09/23 02:46:11;;;;;;;17.17;11.32;;;21.00;53.00;;;;;;6225745;27;85645;-61
2021/09/23 02:49:12;;;;;;;19.20;12.07;;;21.00;53.10;;;;;;6225904;28;85562;-61
2021/09/23 02:52:12;;;;;;;17.02;12.00;;;21.00;53.20;;;;;;6218553;27;85895;-61
2021/09/23 02:55:13;;;;;;;18.83;11.75;;;20.90;53.40;;;;;;6222996;28;85044;-61
2021/09/23 02:58:13;;;;;;;22.02;12.40;;;21.00;53.30;;;;;;6229824;28;86184;-61
2021/09/23 03:01:14;;;;;;;20.40;12.07;;;21.00;53.30;;;;;;6229465;28;85451;-61
2021/09/23 03:04:14;;;;;;;18.73;11.45;;;20.90;53.20;;;;;;6224920;28;85214;-61
2021/09/23 03:07:15;;;;;;;19.63;11.57;;;21.00;53.10;;;;;;6229781;27;85779;-61
2021/09/23 03:10:16;;;;;;;15.95;11.02;;;21.00;53.20;;;;;;6230423;28;85736;-61
2021/09/23 03:13:16;;;;;;;18.33;11.55;;;21.00;53.30;;;;;;6228593;27;86171;-61
2021/09/23 03:16:17;;;;;;;20.10;11.27;;;20.90;53.70;;;;;;6229456;28;86171;-61
2021/09/23 03:19:18;;;;;;;16.45;10.75;;;20.90;53.10;;;;;;6225152;27;85812;-61
2021/09/23 03:22:19;;;;;;;18.10;10.90;;;20.90;53.60;;;;;;6225126;28;85855;-61
2021/09/23 03:25:21;;;;;;;17.88;11.02;;;20.90;53.30;;;;;;6230127;27;85535;-61
2021/09/23 03:28:22;;;;;;;18.40;11.00;;;20.90;53.30;;;;;;6222204;28;86318;-61
2021/09/23 03:31:22;;;;;;;16.77;11.40;;;20.90;53.10;;;;;;6230788;27;83630;-61
2021/09/23 03:34:23;;;;;;;18.38;11.00;;;20.90;53.40;;;;;;6229714;28;84334;-61
2021/09/23 03:37:23;;;;;;;14.57;9.40;;;20.90;53.30;;;;;;6227294;27;83028;-60
2021/09/23 03:40:24;;;;;;;14.40;9.65;;;20.90;53.10;;;;;;6230332;27;82931;-60
2021/09/23 03:43:24;;;;;;;14.85;9.43;;;20.90;53.50;;;;;;6227875;27;82367;-60
2021/09/23 03:46:25;;;;;;;15.65;9.68;;;20.90;54.00;;;;;;6228295;28;81139;-60
2021/09/23 03:49:25;;;;;;;15.18;9.45;;;20.90;54.10;;;;;;6241429;28;81238;-61
2021/09/23 03:52:26;;;;;;;15.75;9.80;;;20.90;54.00;;;;;;6234354;28;82392;-61
2021/09/23 03:55:26;;;;;;;14.73;9.27;;;20.90;53.90;;;;;;6220677;28;82834;-60
2021/09/23 03:58:27;;;;;;;14.13;9.55;;;20.90;53.60;;;;;;6223339;28;82843;-61
2021/09/23 04:01:27;;;;;;;15.38;10.15;;;20.90;54.00;;;;;;6218425;28;83445;-60
2021/09/23 04:04:28;;;;;;;14.00;9.13;;;20.90;53.90;;;;;;6204295;28;82943;-60
2021/09/23 04:07:29;;;;;;;15.00;9.45;;;20.90;54.10;;;;;;6223977;28;84033;-61
2021/09/23 04:10:29;;;;;;;13.70;8.68;;;20.90;53.60;;;;;;6229123;28;82955;-60
2021/09/23 04:13:30;;;;;;;13.05;8.65;;;20.90;53.80;;;;;;6221100;28;82633;-62
2021/09/23 04:16:31;;;;;;;15.27;9.43;;;20.90;54.00;;;;;;6231749;28;83164;-60
2021/09/23 04:19:31;;;;;;;14.43;9.68;;;20.90;53.80;;;;;;6230823;28;82964;-59
2021/09/23 04:22:32;;;;;;;14.50;8.80;;;20.90;54.10;;;;;;6230876;28;82771;-60
2021/09/23 04:25:33;;;;;;;13.23;8.68;;;20.90;54.00;;;;;;6224875;28;82374;-61
2021/09/23 04:28:34;;;;;;;12.60;8.43;;;21.00;54.40;;;;;;6232611;28;83025;-60
2021/09/23 04:31:34;;;;;;;12.35;8.70;;;21.00;54.60;;;;;;6230838;28;82462;-61
2021/09/23 04:34:35;;;;;;;15.48;9.25;;;21.00;53.80;;;;;;6230722;28;81511;-61
2021/09/23 04:37:35;;;;;;;13.70;8.60;;;21.00;54.80;;;;;;6230991;28;82912;-61
2021/09/23 04:40:36;;;;;;;13.40;8.30;;;21.00;54.50;;;;;;6227764;28;82923;-61
2021/09/23 04:43:37;;;;;;;13.20;7.95;;;21.00;54.90;;;;;;6229493;28;83238;-61
2021/09/23 04:46:38;;;;;;;14.18;8.95;;;21.00;55.20;;;;;;6228666;28;80532;-60
2021/09/23 04:49:39;;;;;;;10.98;8.30;;;21.00;55.10;;;;;;6223697;28;80800;-61
2021/09/23 04:52:40;;;;;;;11.98;7.63;;;21.00;56.00;;;;;;6221667;28;81821;-61
2021/09/23 04:55:41;;;;;;;11.90;8.05;;;21.00;55.20;;;;;;6231197;28;84652;-61
2021/09/23 04:58:41;;;;;;;13.27;8.15;;;21.00;54.30;;;;;;6212304;28;83321;-61
2021/09/23 05:01:42;;;;;;;11.90;8.07;;;21.00;55.10;;;;;;6231757;28;82268;-61
2021/09/23 05:04:44;;;;;;;12.80;8.93;;;21.10;54.90;;;;;;6228070;28;83079;-60
2021/09/23 05:07:46;;;;;;;12.73;8.80;;;21.10;54.40;;;;;;6230917;28;82473;-60
2021/09/23 05:10:49;;;;;;;13.25;8.48;;;21.00;55.90;;;;;;6230652;28;80390;-61
2021/09/23 05:13:50;;;;;;;12.85;8.10;;;21.10;55.70;;;;;;6224196;28;81188;-61
2021/09/23 05:16:50;;;;;;;12.48;8.05;;;21.00;55.90;;;;;;6227878;28;81369;-61
2021/09/23 05:19:51;;;;;;;11.60;7.63;;;21.00;55.60;;;;;;6231208;28;80885;-61
2021/09/23 05:22:51;;;;;;;15.00;8.00;;;21.00;55.60;;;;;;6228880;27;80687;-61
2021/09/23 05:25:53;;;;;;;12.57;7.82;;;21.00;55.70;;;;;;6213636;28;80522;-61
2021/09/23 05:28:53;;;;;;;12.85;7.30;;;21.00;55.20;;;;;;6229541;27;80300;-61
2021/09/23 05:31:54;;;;;;;11.35;7.07;;;21.00;55.40;;;;;;6222935;28;81624;-60
2021/09/23 05:34:54;;;;;;;17.15;8.02;;;21.10;55.10;;;;;;6230166;27;80535;-60
2021/09/23 05:37:55;;;;;;;15.98;8.23;;;21.00;55.50;;;;;;6228164;28;80572;-60
2021/09/23 05:40:59;;;;;;;38.65;8.23;;;21.00;55.40;;;;;;6220429;28;80610;-60
2021/09/23 05:44:00;;;;;;;20.27;9.60;;;21.00;55.40;;;;;;6231244;27;80543;-61
2021/09/23 05:47:01;;;;;;;21.67;8.80;;;21.00;55.70;;;;;;6224959;28;83014;-61
2021/09/23 05:50:01;;;;;;;16.48;7.57;;;21.00;55.50;;;;;;6231085;27;80353;-61
2021/09/23 05:53:02;;;;;;;21.88;8.45;;;21.00;55.50;;;;;;6227524;28;80878;-61
2021/09/23 05:56:02;;;;;;;13.43;8.00;;;21.00;55.30;;;;;;6230408;28;80295;-60
2021/09/23 05:59:03;;;;;;;17.88;8.80;;;21.00;55.20;;;;;;6225036;28;80187;-60
2021/09/23 06:02:04;;;;;;;14.23;6.95;;;21.00;55.30;;;;;;6227884;27;81056;-61
2021/09/23 06:05:05;;;;;;;16.13;7.40;;;21.00;55.40;;;;;;6229779;28;81775;-60
2021/09/23 06:08:05;;;;;;;16.80;8.30;;;21.00;55.20;;;;;;6227711;27;80590;-61
2021/09/23 06:11:06;;;;;;;12.90;8.10;;;21.00;55.10;;;;;;6229407;28;80619;-61
2021/09/23 06:14:06;;;;;;;18.35;7.97;;;21.00;55.10;;;;;;6228810;28;80872;-60
2021/09/23 06:17:07;;;;;;;13.93;7.65;;;21.00;55.10;;;;;;6230029;27;80530;-60
2021/09/23 06:20:07;;;;;;;13.32;7.45;;;21.00;54.70;;;;;;6220368;28;80579;-60
2021/09/23 06:23:08;;;;;;;13.63;6.90;;;21.00;55.20;;;;;;6228001;28;82368;-60
2021/09/23 06:26:08;;;;;;;10.52;6.53;;;21.00;54.70;;;;;;6229786;28;81605;-61
2021/09/23 06:29:09;;;;;;;9.68;6.47;;;21.00;54.90;;;;;;6228828;27;80575;-61
2021/09/23 06:32:09;;;;;;;13.70;7.43;;;21.00;54.70;;;;;;6234449;27;81141;-61
2021/09/23 06:35:10;;;;;;;11.63;6.53;;;21.00;54.50;;;;;;6224285;28;83410;-61
2021/09/23 06:38:11;;;;;;;11.55;6.85;;;21.00;54.60;;;;;;6233437;28;83003;-62
2021/09/23 06:41:11;;;;;;;13.88;7.32;;;21.00;54.60;;;;;;6234111;28;80846;-63
2021/09/23 06:44:12;;;;;;;10.68;6.72;;;21.00;54.50;;;;;;6235960;27;80496;-64
2021/09/23 06:47:13;;;;;;;11.52;6.05;;;21.00;54.40;;;;;;6228222;28;81601;-61
2021/09/23 06:50:14;;;;;;;9.80;5.97;;;21.00;55.00;;;;;;6227725;27;81334;-61
2021/09/23 06:53:14;;;;;;;12.73;6.82;;;21.00;54.70;;;;;;6226486;28;80421;-61
2021/09/23 06:56:15;;;;;;;11.55;6.07;;;21.00;55.10;;;;;;6230935;27;82685;-61
2021/09/23 06:59:15;;;;;;;11.57;6.18;;;21.00;55.30;;;;;;6231103;27;80498;-61
2021/09/23 07:02:24;;;;;;;8.77;5.75;;;21.00;55.40;;;;;;6232454;28;82872;-61
2021/09/23 07:05:46;;;;;;;14.60;6.65;;;21.00;55.40;;;;;;6233821;28;82938;-61
2021/09/23 07:08:46;;;;;;;10.10;5.85;;;21.00;55.40;;;;;;6232144;28;83246;-61
2021/09/23 07:11:50;;;;;;;11.02;6.10;;;21.00;55.10;;;;;;6228574;28;81399;-60
2021/09/23 07:14:50;;;;;;;10.95;6.43;;;21.00;55.20;;;;;;6229148;28;83177;-62
2021/09/23 07:17:51;;;;;;;10.43;6.30;;;21.00;55.30;;;;;;6228450;28;83107;-62
2021/09/23 07:20:51;;;;;;;10.55;6.15;;;21.00;55.50;;;;;;6227005;28;83296;-61
2021/09/23 07:23:52;;;;;;;13.80;6.95;;;21.10;56.20;;;;;;6226010;28;81401;-62
2021/09/23 07:26:52;;;;;;;16.35;7.90;;;21.00;55.40;;;;;;6229993;27;82190;-61
2021/09/23 07:29:53;;;;;;;16.35;7.18;;;21.10;55.80;;;;;;6226588;28;81941;-62
2021/09/23 07:32:53;;;;;;;16.20;7.38;;;21.10;55.90;;;;;;6225536;27;81541;-62
2021/09/23 07:35:54;;;;;;;13.10;7.20;;;21.20;56.10;;;;;;6202356;28;88012;-62
2021/09/23 07:38:55;;;;;;;14.35;7.65;;;21.20;56.20;;;;;;6205943;28;80534;-62
2021/09/23 07:41:55;;;;;;;12.48;6.78;;;21.20;56.20;;;;;;6219002;28;82400;-61
2021/09/23 07:44:56;;;;;;;16.60;7.55;;;21.20;56.20;;;;;;6229331;28;81859;-62
2021/09/23 07:47:57;;;;;;;16.02;7.45;;;21.20;56.30;;;;;;6227951;28;83096;-62
2021/09/23 07:50:57;;;;;;;14.43;7.38;;;21.30;56.20;;;;;;6228077;28;82033;-62
2021/09/23 07:53:58;;;;;;;15.05;7.65;;;21.30;56.20;;;;;;6226515;28;83185;-61
2021/09/23 07:56:58;;;;;;;14.02;7.20;;;21.30;56.40;;;;;;6231014;28;81613;-62
2021/09/23 07:59:59;;;;;;;13.75;6.88;;;21.30;56.40;;;;;;6228496;28;80966;-61
2021/09/23 08:02:59;;;;;;;15.05;7.63;;;21.30;56.50;;;;;;6227622;28;80226;-61
2021/09/23 08:06:00;;;;;;;17.77;8.57;;;21.30;56.50;;;;;;6226634;28;83269;-62
2021/09/23 08:09:01;;;;;;;13.88;7.15;;;21.30;56.60;;;;;;6227348;28;81245;-62
2021/09/23 08:12:01;;;;;;;12.23;6.30;;;21.40;56.60;;;;;;6223878;28;81198;-61
2021/09/23 08:15:02;;;;;;;11.93;6.95;;;21.30;56.50;;;;;;6231859;28;82962;-62
2021/09/23 08:18:29;;;;;;;14.00;6.15;;;21.40;56.30;;;;;;6229820;27;86809;-62
2021/09/23 08:22:03;;;;;;;14.43;6.75;;;21.40;56.40;;;;;;6216638;28;82482;-61
2021/09/23 08:25:04;;;;;;;12.18;6.40;;;21.40;56.50;;;;;;6223031;28;82964;-61
2021/09/23 08:28:04;;;;;;;13.13;6.40;;;21.40;56.50;;;;;;6226927;28;81684;-61
2021/09/23 08:31:08;;;;;;;12.65;6.78;;;21.40;56.50;;;;;;6214721;28;82948;-61
2021/09/23 08:34:08;;;;;;;12.32;6.63;;;21.40;56.50;;;;;;6218469;28;83308;-61
2021/09/23 08:37:11;;;;;;;12.57;6.30;;;21.40;56.50;;;;;;6225322;28;83104;-62
2021/09/23 08:40:13;;;;;;;9.77;6.07;;;21.40;56.40;;;;;;6229321;27;81939;-61
2021/09/23 08:43:13;;;;;;;11.25;6.10;;;21.40;56.40;;;;;;6223871;28;80531;-61
2021/09/23 08:46:15;;;;;;;11.73;6.60;;;21.40;56.40;;;;;;6226122;28;83111;-60
2021/09/23 08:49:15;;;;;;;10.80;5.90;;;21.50;56.40;;;;;;6228643;28;80492;-61
2021/09/23 08:52:20;;;;;;;10.00;5.35;;;21.40;56.30;;;;;;6227337;28;83749;-60
2021/09/23 08:55:22;;;;;;;11.52;6.00;;;21.40;56.20;;;;;;6223115;28;81494;-60
2021/09/23 08:58:27;;;;;;;9.60;5.30;;;21.40;56.20;;;;;;6228310;28;82460;-60
2021/09/23 09:01:32;;;;;;;11.88;6.28;;;21.40;56.20;;;;;;6235775;27;83200;-60
2021/09/23 09:04:51;;;;;;;9.43;4.72;;;21.50;56.30;;;;;;6225020;28;83098;-60
2021/09/23 09:08:21;;;;;;;10.40;5.63;;;21.40;56.30;;;;;;6225240;28;83176;-61
2021/09/23 09:11:46;;;;;;;11.55;5.45;;;21.50;56.20;;;;;;6227519;28;81055;-62
2021/09/23 09:14:46;;;;;;;9.07;5.20;;;21.50;56.20;;;;;;6226199;28;83331;-62
2021/09/23 09:17:48;;;;;;;10.15;4.95;;;21.50;56.20;;;;;;6226214;28;81410;-62
2021/09/23 09:20:49;;;;;;;8.93;4.82;;;21.40;56.10;;;;;;6228141;28;80827;-62
2021/09/23 09:23:49;;;;;;;7.93;4.72;;;21.50;56.10;;;;;;6223467;28;81284;-62
2021/09/23 09:26:50;;;;;;;8.57;5.18;;;21.50;56.20;;;;;;6226458;28;81526;-62
2021/09/23 09:29:54;;;;;;;7.88;4.38;;;21.50;56.10;;;;;;6226554;28;83329;-62
2021/09/23 09:32:57;;;;;;;14.18;5.10;;;21.50;56.10;;;;;;6219666;28;83475;-61
2021/09/23 09:35:59;;;;;;;10.43;5.00;;;21.50;56.20;;;;;;6224641;28;83401;-61
2021/09/23 09:38:59;;;;;;;11.90;5.18;;;21.50;56.10;;;;;;6222731;28;83359;-61
2021/09/23 09:42:00;;;;;;;8.88;4.85;;;21.50;56.20;;;;;;6221526;28;82190;-62
2021/09/23 09:45:00;;;;;;;9.05;5.10;;;21.50;56.10;;;;;;6227212;28;82218;-60
2021/09/23 09:48:02;;;;;;;8.23;5.13;;;21.50;56.10;;;;;;6223753;28;83372;-61
2021/09/23 09:51:03;;;;;;;7.47;4.75;;;21.40;56.10;;;;;;6222149;28;81644;-61
2021/09/23 09:54:05;;;;;;;10.05;4.45;;;21.50;56.00;;;;;;6219780;28;82709;-61
2021/09/23 09:57:11;;;;;;;7.45;4.32;;;21.50;56.00;;;;;;6220882;28;82428;-61
2021/09/23 10:00:15;;;;;;;11.02;5.47;;;21.40;55.90;;;;;;6227208;28;83468;-60
2021/09/23 10:03:16;;;;;;;7.22;4.30;;;21.40;56.00;;;;;;6221244;28;80838;-61
2021/09/23 10:06:17;;;;;;;9.85;5.07;;;21.50;55.90;;;;;;6222933;28;83491;-61
2021/09/23 10:09:18;;;;;;;8.32;4.55;;;21.40;55.80;;;;;;6217788;28;81740;-61
2021/09/23 10:12:19;;;;;;;7.45;4.07;;;21.50;55.80;;;;;;6224237;27;87444;-62
2021/09/23 10:15:20;;;;;;;8.40;4.30;;;21.50;55.80;;;;;;6224610;27;82993;-62
2021/09/23 10:18:21;;;;;;;7.45;4.28;;;21.40;55.70;;;;;;6223736;28;83268;-62
2021/09/23 10:21:25;;;;;;;7.45;4.43;;;21.50;55.70;;;;;;6222240;27;82806;-62
2021/09/23 10:24:26;;;;;;;8.85;4.38;;;21.50;55.80;;;;;;6224246;27;82625;-62
2021/09/23 10:30:46;;;;;;;8.20;4.00;;;21.40;55.90;;;;;;6227705;28;83309;-62
2021/09/23 10:33:52;;;;;;;6.70;3.95;;;21.50;56.00;;;;;;6222056;28;81557;-61
2021/09/23 10:36:53;;;;;;;7.35;4.00;;;21.40;56.00;;;;;;6224180;27;83375;-61
2021/09/23 10:39:54;;;;;;;7.93;3.63;;;21.50;56.10;;;;;;6224475;28;81461;-62
2021/09/23 10:42:55;;;;;;;7.70;4.43;;;21.40;56.00;;;;;;6229256;27;81471;-62
2021/09/23 10:45:56;;;;;;;6.47;3.85;;;21.50;56.00;;;;;;6226569;28;83513;-62
2021/09/23 10:48:59;;;;;;;7.72;4.35;;;21.50;56.00;;;;;;6225128;27;83477;-61
2021/09/23 10:52:01;;;;;;;6.88;3.85;;;21.50;56.00;;;;;;6226051;28;83406;-60
2021/09/23 10:55:02;;;;;;;7.25;3.83;;;21.50;56.00;;;;;;6224535;27;83142;-61
2021/09/23 10:58:02;;;;;;;7.13;4.10;;;21.50;55.90;;;;;;6227591;27;83055;-61
2021/09/23 11:01:03;;;;;;;10.48;4.60;;;21.50;55.90;;;;;;6228864;27;83333;-62
2021/09/23 11:04:04;;;;;;;6.13;3.60;;;21.50;55.90;;;;;;6220093;28;83130;-62
2021/09/23 11:07:06;;;;;;;8.07;4.10;;;21.50;56.00;;;;;;6227561;27;83119;-62
2021/09/23 11:10:07;;;;;;;7.03;3.70;;;21.50;55.90;;;;;;6225738;28;82274;-61
2021/09/23 11:13:07;;;;;;;6.82;3.80;;;21.50;55.90;;;;;;6225077;27;81920;-61
2021/09/23 11:16:08;;;;;;;6.65;4.13;;;21.50;55.70;;;;;;6227375;28;82960;-61
2021/09/23 11:19:09;;;;;;;10.70;4.18;;;21.50;55.80;;;;;;6223131;28;83256;-61
2021/09/23 11:22:10;;;;;;;7.55;3.95;;;21.60;55.60;;;;;;6216477;27;82665;-62
2021/09/23 11:25:10;;;;;;;10.82;4.97;;;21.60;55.60;;;;;;6230296;27;83573;-62
2021/09/23 11:28:11;;;;;;;9.80;4.90;;;21.50;55.60;;;;;;6233194;27;83769;-62
2021/09/23 11:31:13;;;;;;;10.93;4.88;;;21.60;56.00;;;;;;6230851;27;82467;-62
2021/09/23 11:34:14;;;;;;;9.75;5.05;;;21.60;55.70;;;;;;6214653;28;83309;-62
2021/09/23 11:37:14;;;;;;;11.93;5.20;;;21.60;55.50;;;;;;6215560;28;83242;-61
2021/09/23 11:40:24;;;;;;;21.83;8.15;;;21.60;55.60;;;;;;6231016;28;82833;-62
2021/09/23 11:43:29;;;;;;;22.33;9.45;;;21.60;55.40;;;;;;6229826;28;83387;-62
2021/09/23 11:46:30;;;;;;;;;;;21.60;55.20;;;;;;6231090;28;82883;-61
2021/09/23 11:49:31;;;;;;;40.65;18.77;;;21.60;55.10;;;;;;6238045;28;83204;-63
2021/09/23 11:52:32;;;;;;;113.65;49.17;;;21.60;55.10;;;;;;6226660;28;82911;-63
2021/09/23 11:55:32;;;;;;;105.50;47.42;;;21.60;55.40;;;;;;6210450;28;85846;-62
2021/09/23 11:58:34;;;;;;;87.18;36.50;;;21.50;55.40;;;;;;6229885;27;82886;-63
2021/09/23 12:01:35;;;;;;;71.40;33.03;;;21.60;55.60;;;;;;6230226;27;82807;-62
2021/09/23 12:04:36;;;;;;;65.38;28.88;;;21.50;55.50;;;;;;6209602;28;85726;-63
2021/09/23 12:07:37;;;;;;;56.30;25.80;;;21.50;55.40;;;;;;6227951;28;84799;-62
2021/09/23 12:10:38;;;;;;;61.05;24.77;;;21.50;55.40;;;;;;6214606;28;84606;-63
2021/09/23 12:13:39;;;;;;;54.35;23.35;;;21.50;55.20;;;;;;6234158;28;83365;-63
2021/09/23 12:16:39;;;;;;;55.92;23.88;;;21.50;55.30;;;;;;6227737;28;84846;-62
2021/09/23 12:19:56;;;;;;;45.72;21.00;;;21.50;55.40;;;;;;6225419;28;86156;-62
2021/09/23 12:22:58;;;;;;;50.10;21.67;;;21.50;55.40;;;;;;6215405;28;85617;-61
2021/09/23 12:25:58;;;;;;;43.80;20.45;;;21.50;55.50;;;;;;6225825;28;83209;-62
2021/09/23 12:28:59;;;;;;;45.08;19.27;;;21.50;55.70;;;;;;6226617;28;85760;-63
2021/09/23 12:31:59;;;;;;;37.00;16.27;;;21.50;55.80;;;;;;6219859;28;85666;-63
2021/09/23 12:35:00;;;;;;;40.25;16.67;;;21.50;55.70;;;;;;6218328;28;84884;-63
2021/09/23 12:38:01;;;;;;;34.92;15.18;;;21.50;55.70;;;;;;6218540;28;85999;-63
2021/09/23 12:41:20;;;;;;;36.83;15.02;;;21.50;55.80;;;;;;6215173;28;85877;-63
2021/09/23 12:44:21;;;;;;;31.98;14.40;;;21.50;55.80;;;;;;6222744;28;85582;-63
2021/09/23 12:47:21;;;;;;;33.28;13.13;;;21.50;55.90;;;;;;6226460;28;84034;-62
2021/09/23 12:50:22;;;;;;;25.85;11.75;;;21.50;55.90;;;;;;6221743;28;85990;-62
2021/09/23 12:53:24;;;;;;;29.45;12.90;;;21.50;55.70;;;;;;6221534;28;85185;-62
2021/09/23 12:56:25;;;;;;;23.58;10.68;;;21.50;55.80;;;;;;6227771;27;83150;-62
2021/09/23 12:59:26;;;;;;;26.95;11.30;;;21.50;55.90;;;;;;6219677;28;85775;-62
2021/09/23 13:02:26;;;;;;;27.83;10.73;;;21.50;55.90;;;;;;6218590;28;86157;-62
2021/09/23 13:05:28;;;;;;;19.23;9.13;;;21.50;55.90;;;;;;6225531;28;85933;-63
2021/09/23 13:08:29;;;;;;;17.30;9.23;;;21.50;55.70;;;;;;6221447;28;86010;-62
2021/09/23 13:11:34;;;;;;;20.60;9.85;;;21.50;55.60;;;;;;6227890;28;81895;-62
2021/09/23 13:14:47;;;;;;;19.38;8.88;;;21.50;55.50;;;;;;6230264;28;83628;-64
2021/09/23 13:17:54;;;;;;;19.80;9.15;;;21.50;55.50;;;;;;6229622;28;83438;-62
2021/09/23 13:20:56;;;;;;;15.40;8.40;;;21.50;55.30;;;;;;6228255;28;83657;-61
2021/09/23 13:24:14;;;;;;;17.23;7.82;;;21.50;55.20;;;;;;6227081;28;83642;-61
2021/09/23 13:27:16;;;;;;;16.40;8.90;;;21.50;55.10;;;;;;6226980;28;83594;-62
2021/09/23 13:30:17;;;;;;;16.92;8.13;;;21.50;55.30;;;;;;6229613;27;82801;-62
2021/09/23 13:33:26;;;;;;;16.23;8.15;;;21.50;55.30;;;;;;6226797;28;85807;-63
2021/09/23 13:36:27;;;;;;;14.30;7.75;;;21.50;55.30;;;;;;6217903;27;83583;-62
2021/09/23 13:39:27;;;;;;;12.88;7.22;;;21.50;55.30;;;;;;6221344;28;82408;-62
2021/09/23 13:42:29;;;;;;;14.77;7.68;;;21.50;55.30;;;;;;6229314;27;80380;-62
2021/09/23 13:45:42;;;;;;;13.80;6.72;;;21.50;55.20;;;;;;6230450;27;81791;-62
2021/09/23 13:48:43;;;;;;;11.32;6.50;;;21.60;55.40;;;;;;6227614;28;83303;-62
2021/09/23 13:51:44;;;;;;;11.13;6.78;;;21.50;55.20;;;;;;6218666;28;83222;-62
2021/09/23 13:54:44;;;;;;;13.63;6.60;;;21.50;55.10;;;;;;6220409;28;83835;-62
2021/09/23 13:57:45;;;;;;;12.20;6.70;;;21.50;55.30;;;;;;6229607;28;83280;-62
2021/09/23 14:00:45;;;;;;;13.80;6.20;;;21.50;55.10;;;;;;6218425;28;81670;-62
2021/09/23 14:03:48;;;;;;;10.63;6.72;;;21.50;55.70;;;;;;6222458;28;83200;-61
2021/09/23 14:06:52;;;;;;;8.27;5.30;;;21.40;55.90;;;;;;6224830;27;81290;-63
2021/09/23 14:09:54;;;;;;;9.93;6.22;;;21.40;55.80;;;;;;6219730;28;83112;-63
2021/09/23 14:13:05;;;;;;;10.93;6.35;;;21.40;56.10;;;;;;6223080;27;83268;-62
2021/09/23 14:16:06;;;;;;;14.73;5.78;;;21.40;55.90;;;;;;6221421;27;82881;-62
2021/09/23 14:19:07;;;;;;;14.52;7.05;;;21.50;55.80;;;;;;6222303;28;81720;-62
2021/09/23 14:22:09;;;;;;;10.02;5.78;;;21.50;56.40;;;;;;6221911;28;83008;-62
2021/09/23 14:25:10;;;;;;;12.63;5.63;;;21.50;56.30;;;;;;6210155;28;82628;-62
2021/09/23 14:28:11;;;;;;;11.00;6.30;;;21.40;56.00;;;;;;6223486;28;83694;-62
2021/09/23 14:31:12;;;;;;;12.02;5.95;;;21.50;56.10;;;;;;6218328;28;83494;-61
2021/09/23 14:34:17;;;;;;;10.90;5.93;;;21.50;55.90;;;;;;6216300;28;83237;-61
2021/09/23 14:37:18;;;;;;;8.27;5.80;;;21.50;55.90;;;;;;6225767;27;80479;-62
2021/09/23 14:40:23;;;;;;;10.63;5.07;;;21.50;55.70;;;;;;6223246;28;80518;-61
2021/09/23 14:43:24;;;;;;;13.27;6.15;;;21.50;55.90;;;;;;6224108;28;81632;-62
2021/09/23 14:46:24;;;;;;;7.60;5.28;;;21.50;56.40;;;;;;6218695;28;82774;-61
2021/09/23 14:49:25;;;;;;;10.80;5.93;;;21.50;56.00;;;;;;6219164;28;82029;-61
2021/09/23 14:52:25;;;;;;;9.10;5.85;;;21.50;56.40;;;;;;6228767;27;80454;-62
2021/09/23 14:55:26;;;;;;;9.45;6.20;;;21.50;57.00;;;;;;6222331;28;81173;-62
2021/09/23 14:58:26;;;;;;;9.65;5.72;;;21.50;57.20;;;;;;6209451;27;81490;-61
2021/09/23 15:01:27;;;;;;;12.20;5.93;;;21.50;57.40;;;;;;6212637;28;83002;-63
2021/09/23 15:04:27;;;;;;;12.43;5.43;;;21.50;57.60;;;;;;6216081;28;80608;-62
2021/09/23 15:07:28;;;;;;;11.02;5.88;;;21.50;57.60;;;;;;6205734;28;82089;-62
2021/09/23 15:10:28;;;;;;;11.30;6.07;;;21.50;57.50;;;;;;6215162;28;80834;-61
2021/09/23 15:13:29;;;;;;;7.82;5.53;;;21.50;57.50;;;;;;6227347;27;82263;-62
2021/09/23 15:16:30;;;;;;;12.88;5.82;;;21.50;57.60;;;;;;6229647;27;80932;-62
2021/09/23 15:19:30;;;;;;;7.57;4.97;;;21.50;57.60;;;;;;6223469;28;81634;-62
2021/09/23 15:22:31;;;;;;;8.32;5.72;;;21.40;57.40;;;;;;6230117;27;81425;-61
2021/09/23 15:25:31;;;;;;;10.77;5.75;;;21.50;57.60;;;;;;6225127;27;80516;-60
2021/09/23 15:28:36;;;;;;;8.73;5.65;;;21.40;57.80;;;;;;6222266;27;80334;-60
2021/09/23 15:31:37;;;;;;;7.85;5.47;;;21.40;57.90;;;;;;6228041;28;80395;-59
2021/09/23 15:34:37;;;;;;;9.73;5.38;;;21.40;57.90;;;;;;6230875;28;81362;-59
2021/09/23 15:37:38;;;;;;;10.10;6.15;;;21.50;58.10;;;;;;6226187;27;80401;-58